sensor_id;sensor_type;location;lat;lon;timestamp;P1;durP1;ratioP1;P2;durP2;ratioP2
68455;SDS011;55437;55.046;38.838;2024-03-23T00:53:50;42.38;;;17.23;;
68455;SDS011;55437;55.046;38.838;2024-03-23T00:56:16;46.08;;;19.33;;
68455;SDS011;55437;55.046;38.838;2024-03-23T00:58:42;38.17;;;16.40;;
68455;SDS011;55437;55.046;38.838;2024-03-23T01:01:08;47.20;;;18.50;;
68455;SDS011;55437;55.046;38.838;2024-03-23T01:03:35;45.40;;;17.00;;
68455;SDS011;55437;55.046;38.838;2024-03-23T01:06:29;45.38;;;17.23;;
68455;SDS011;55437;55.046;38.838;2024-03-23T01:08:55;43.90;;;17.35;;
68455;SDS011;55437;55.046;38.838;2024-03-23T01:11:46;40.92;;;17.88;;
68455;SDS011;55437;55.046;38.838;2024-03-23T01:14:13;41.30;;;14.75;;
68455;SDS011;55437;55.046;38.838;2024-03-23T01:16:40;40.25;;;16.50;;
68455;SDS011;55437;55.046;38.838;2024-03-23T01:19:07;40.15;;;15.50;;
68455;SDS011;55437;55.046;38.838;2024-03-23T01:21:51;41.63;;;16.42;;
68455;SDS011;55437;55.046;38.838;2024-03-23T01:24:19;42.05;;;17.40;;
68455;SDS011;55437;55.046;38.838;2024-03-23T01:26:44;41.08;;;16.52;;
68455;SDS011;55437;55.046;38.838;2024-03-23T01:29:10;39.75;;;17.90;;
68455;SDS011;55437;55.046;38.838;2024-03-23T01:31:37;34.72;;;15.18;;
68455;SDS011;55437;55.046;38.838;2024-03-23T01:34:03;36.55;;;14.52;;
68455;SDS011;55437;55.046;38.838;2024-03-23T01:36:28;38.03;;;15.07;;
68455;SDS011;55437;55.046;38.838;2024-03-23T01:38:54;36.30;;;15.63;;
68455;SDS011;55437;55.046;38.838;2024-03-23T01:41:20;44.42;;;17.58;;
68455;SDS011;55437;55.046;38.838;2024-03-23T01:43:47;35.78;;;17.92;;
68455;SDS011;55437;55.046;38.838;2024-03-23T01:46:13;39.17;;;16.02;;
68455;SDS011;55437;55.046;38.838;2024-03-23T01:48:39;44.75;;;17.45;;
68455;SDS011;55437;55.046;38.838;2024-03-23T01:51:05;35.17;;;15.65;;
68455;SDS011;55437;55.046;38.838;2024-03-23T01:53:31;37.78;;;15.25;;
68455;SDS011;55437;55.046;38.838;2024-03-23T01:56:01;38.10;;;17.17;;
68455;SDS011;55437;55.046;38.838;2024-03-23T01:58:28;42.67;;;15.68;;
68455;SDS011;55437;55.046;38.838;2024-03-23T02:00:54;33.50;;;15.20;;
68455;SDS011;55437;55.046;38.838;2024-03-23T02:03:24;36.63;;;14.98;;
68455;SDS011;55437;55.046;38.838;2024-03-23T02:05:52;31.05;;;14.05;;
68455;SDS011;55437;55.046;38.838;2024-03-23T02:08:44;37.45;;;14.85;;
68455;SDS011;55437;55.046;38.838;2024-03-23T02:11:10;34.05;;;17.45;;
68455;SDS011;55437;55.046;38.838;2024-03-23T02:13:36;36.05;;;16.45;;
68455;SDS011;55437;55.046;38.838;2024-03-23T02:16:02;31.40;;;14.43;;
68455;SDS011;55437;55.046;38.838;2024-03-23T02:18:28;41.33;;;15.32;;
68455;SDS011;55437;55.046;38.838;2024-03-23T02:23:45;33.28;;;14.52;;
68455;SDS011;55437;55.046;38.838;2024-03-23T02:26:11;33.08;;;14.80;;
68455;SDS011;55437;55.046;38.838;2024-03-23T02:28:37;38.17;;;16.08;;
68455;SDS011;55437;55.046;38.838;2024-03-23T02:31:03;36.30;;;15.25;;
68455;SDS011;55437;55.046;38.838;2024-03-23T02:33:30;32.45;;;14.40;;
68455;SDS011;55437;55.046;38.838;2024-03-23T02:35:57;36.10;;;16.85;;
68455;SDS011;55437;55.046;38.838;2024-03-23T02:38:23;32.95;;;15.05;;
68455;SDS011;55437;55.046;38.838;2024-03-23T02:40:49;32.30;;;14.48;;
68455;SDS011;55437;55.046;38.838;2024-03-23T02:43:15;38.88;;;14.60;;
68455;SDS011;55437;55.046;38.838;2024-03-23T02:45:46;34.08;;;16.02;;
68455;SDS011;55437;55.046;38.838;2024-03-23T02:48:15;32.05;;;14.23;;
68455;SDS011;55437;55.046;38.838;2024-03-23T02:50:42;35.75;;;14.52;;
68455;SDS011;55437;55.046;38.838;2024-03-23T02:53:08;35.92;;;16.50;;
68455;SDS011;55437;55.046;38.838;2024-03-23T02:55:34;32.78;;;16.05;;
68455;SDS011;55437;55.046;38.838;2024-03-23T02:58:03;31.55;;;14.60;;
68455;SDS011;55437;55.046;38.838;2024-03-23T03:00:30;41.17;;;17.42;;
68455;SDS011;55437;55.046;38.838;2024-03-23T03:03:14;37.85;;;15.00;;
68455;SDS011;55437;55.046;38.838;2024-03-23T03:05:40;34.45;;;14.98;;
68455;SDS011;55437;55.046;38.838;2024-03-23T03:08:06;37.03;;;16.80;;
68455;SDS011;55437;55.046;38.838;2024-03-23T03:10:32;31.88;;;16.23;;
68455;SDS011;55437;55.046;38.838;2024-03-23T03:13:01;30.98;;;13.95;;
68455;SDS011;55437;55.046;38.838;2024-03-23T03:15:28;32.78;;;14.73;;
68455;SDS011;55437;55.046;38.838;2024-03-23T03:17:54;33.67;;;15.70;;
68455;SDS011;55437;55.046;38.838;2024-03-23T03:20:20;40.17;;;16.15;;
68455;SDS011;55437;55.046;38.838;2024-03-23T03:22:49;36.03;;;15.70;;
68455;SDS011;55437;55.046;38.838;2024-03-23T03:25:15;34.65;;;16.30;;
68455;SDS011;55437;55.046;38.838;2024-03-23T03:27:41;36.92;;;16.02;;
68455;SDS011;55437;55.046;38.838;2024-03-23T03:30:08;34.95;;;16.60;;
68455;SDS011;55437;55.046;38.838;2024-03-23T03:32:34;33.25;;;15.65;;
68455;SDS011;55437;55.046;38.838;2024-03-23T03:35:00;36.88;;;16.52;;
68455;SDS011;55437;55.046;38.838;2024-03-23T03:37:51;39.70;;;18.05;;
68455;SDS011;55437;55.046;38.838;2024-03-23T03:40:17;33.08;;;14.18;;
68455;SDS011;55437;55.046;38.838;2024-03-23T03:42:44;36.40;;;16.15;;
68455;SDS011;55437;55.046;38.838;2024-03-23T03:45:10;36.40;;;16.42;;
68455;SDS011;55437;55.046;38.838;2024-03-23T03:47:37;33.00;;;16.88;;
68455;SDS011;55437;55.046;38.838;2024-03-23T03:50:02;36.10;;;15.73;;
68455;SDS011;55437;55.046;38.838;2024-03-23T03:52:28;34.30;;;15.57;;
68455;SDS011;55437;55.046;38.838;2024-03-23T03:55:00;33.15;;;15.20;;
68455;SDS011;55437;55.046;38.838;2024-03-23T03:57:31;39.67;;;16.75;;
68455;SDS011;55437;55.046;38.838;2024-03-23T03:59:57;36.05;;;14.55;;
68455;SDS011;55437;55.046;38.838;2024-03-23T04:02:23;39.53;;;16.23;;
68455;SDS011;55437;55.046;38.838;2024-03-23T04:04:49;37.38;;;19.00;;
68455;SDS011;55437;55.046;38.838;2024-03-23T04:07:15;40.03;;;18.98;;
68455;SDS011;55437;55.046;38.838;2024-03-23T04:09:43;38.78;;;16.05;;
68455;SDS011;55437;55.046;38.838;2024-03-23T04:12:09;36.53;;;15.40;;
68455;SDS011;55437;55.046;38.838;2024-03-23T04:14:35;37.15;;;18.20;;
68455;SDS011;55437;55.046;38.838;2024-03-23T04:17:02;34.88;;;16.50;;
68455;SDS011;55437;55.046;38.838;2024-03-23T04:19:28;31.52;;;15.45;;
68455;SDS011;55437;55.046;38.838;2024-03-23T04:21:55;32.75;;;15.30;;
68455;SDS011;55437;55.046;38.838;2024-03-23T04:24:22;33.55;;;15.57;;
68455;SDS011;55437;55.046;38.838;2024-03-23T04:26:49;34.20;;;16.48;;
68455;SDS011;55437;55.046;38.838;2024-03-23T04:29:15;29.00;;;14.95;;
68455;SDS011;55437;55.046;38.838;2024-03-23T04:31:41;30.17;;;15.27;;
68455;SDS011;55437;55.046;38.838;2024-03-23T04:34:07;33.42;;;14.63;;
68455;SDS011;55437;55.046;38.838;2024-03-23T04:36:33;34.17;;;15.27;;
68455;SDS011;55437;55.046;38.838;2024-03-23T04:38:59;34.38;;;15.88;;
68455;SDS011;55437;55.046;38.838;2024-03-23T04:44:18;28.67;;;13.45;;
68455;SDS011;55437;55.046;38.838;2024-03-23T04:46:44;35.55;;;14.70;;
68455;SDS011;55437;55.046;38.838;2024-03-23T04:49:10;32.75;;;14.32;;
68455;SDS011;55437;55.046;38.838;2024-03-23T04:51:37;23.05;;;10.82;;
68455;SDS011;55437;55.046;38.838;2024-03-23T04:54:04;32.00;;;14.50;;
68455;SDS011;55437;55.046;38.838;2024-03-23T04:56:32;29.52;;;14.18;;
68455;SDS011;55437;55.046;38.838;2024-03-23T04:59:23;28.55;;;13.63;;
68455;SDS011;55437;55.046;38.838;2024-03-23T05:01:51;35.45;;;15.50;;
68455;SDS011;55437;55.046;38.838;2024-03-23T05:04:18;30.38;;;15.18;;
68455;SDS011;55437;55.046;38.838;2024-03-23T05:06:48;32.35;;;15.05;;
68455;SDS011;55437;55.046;38.838;2024-03-23T05:09:14;31.25;;;13.88;;
68455;SDS011;55437;55.046;38.838;2024-03-23T05:11:41;29.73;;;12.98;;
68455;SDS011;55437;55.046;38.838;2024-03-23T05:14:07;35.60;;;14.25;;
68455;SDS011;55437;55.046;38.838;2024-03-23T05:16:34;28.38;;;14.05;;
68455;SDS011;55437;55.046;38.838;2024-03-23T05:19:03;26.55;;;13.43;;
68455;SDS011;55437;55.046;38.838;2024-03-23T05:21:54;29.85;;;14.63;;
68455;SDS011;55437;55.046;38.838;2024-03-23T05:24:20;31.13;;;12.95;;
68455;SDS011;55437;55.046;38.838;2024-03-23T05:26:46;26.25;;;11.60;;
68455;SDS011;55437;55.046;38.838;2024-03-23T05:29:12;32.28;;;17.48;;
68455;SDS011;55437;55.046;38.838;2024-03-23T05:31:40;27.33;;;12.88;;
68455;SDS011;55437;55.046;38.838;2024-03-23T05:34:07;27.65;;;13.48;;
68455;SDS011;55437;55.046;38.838;2024-03-23T05:36:34;28.10;;;12.63;;
68455;SDS011;55437;55.046;38.838;2024-03-23T05:39:01;29.65;;;14.07;;
68455;SDS011;55437;55.046;38.838;2024-03-23T05:44:42;28.13;;;12.90;;
68455;SDS011;55437;55.046;38.838;2024-03-23T05:47:13;32.15;;;14.02;;
68455;SDS011;55437;55.046;38.838;2024-03-23T05:49:42;30.23;;;14.15;;
68455;SDS011;55437;55.046;38.838;2024-03-23T05:52:08;31.08;;;15.48;;
68455;SDS011;55437;55.046;38.838;2024-03-23T05:54:36;28.73;;;13.27;;
68455;SDS011;55437;55.046;38.838;2024-03-23T05:57:02;27.60;;;13.55;;
68455;SDS011;55437;55.046;38.838;2024-03-23T05:59:30;29.10;;;13.50;;
68455;SDS011;55437;55.046;38.838;2024-03-23T06:02:22;27.38;;;13.90;;
68455;SDS011;55437;55.046;38.838;2024-03-23T06:04:49;29.30;;;15.13;;
68455;SDS011;55437;55.046;38.838;2024-03-23T06:07:15;26.02;;;12.93;;
68455;SDS011;55437;55.046;38.838;2024-03-23T06:09:41;29.48;;;13.20;;
68455;SDS011;55437;55.046;38.838;2024-03-23T06:12:08;27.70;;;13.43;;
68455;SDS011;55437;55.046;38.838;2024-03-23T06:14:34;29.08;;;13.43;;
68455;SDS011;55437;55.046;38.838;2024-03-23T06:17:00;27.95;;;14.52;;
68455;SDS011;55437;55.046;38.838;2024-03-23T06:19:27;28.23;;;14.07;;
68455;SDS011;55437;55.046;38.838;2024-03-23T06:21:53;26.95;;;13.25;;
68455;SDS011;55437;55.046;38.838;2024-03-23T06:24:21;28.77;;;12.77;;
68455;SDS011;55437;55.046;38.838;2024-03-23T06:27:07;66.60;;;33.45;;
68455;SDS011;55437;55.046;38.838;2024-03-23T06:29:34;33.42;;;13.90;;
68455;SDS011;55437;55.046;38.838;2024-03-23T06:32:05;25.33;;;11.63;;
68455;SDS011;55437;55.046;38.838;2024-03-23T06:34:31;29.33;;;12.27;;
68455;SDS011;55437;55.046;38.838;2024-03-23T06:36:57;24.52;;;11.32;;
68455;SDS011;55437;55.046;38.838;2024-03-23T06:39:24;29.27;;;14.10;;
68455;SDS011;55437;55.046;38.838;2024-03-23T06:41:54;26.83;;;11.38;;
68455;SDS011;55437;55.046;38.838;2024-03-23T06:44:20;23.08;;;12.18;;
68455;SDS011;55437;55.046;38.838;2024-03-23T06:46:47;26.00;;;12.43;;
68455;SDS011;55437;55.046;38.838;2024-03-23T06:49:17;28.00;;;15.10;;
68455;SDS011;55437;55.046;38.838;2024-03-23T06:51:46;24.73;;;11.60;;
68455;SDS011;55437;55.046;38.838;2024-03-23T06:54:12;29.65;;;15.65;;
68455;SDS011;55437;55.046;38.838;2024-03-23T06:56:41;28.30;;;12.57;;
68455;SDS011;55437;55.046;38.838;2024-03-23T06:59:07;25.75;;;12.88;;
68455;SDS011;55437;55.046;38.838;2024-03-23T07:01:36;28.55;;;12.68;;
68455;SDS011;55437;55.046;38.838;2024-03-23T07:04:02;22.42;;;10.55;;
68455;SDS011;55437;55.046;38.838;2024-03-23T07:06:32;24.05;;;12.43;;
68455;SDS011;55437;55.046;38.838;2024-03-23T07:08:58;28.98;;;12.40;;
68455;SDS011;55437;55.046;38.838;2024-03-23T07:11:26;28.58;;;12.32;;
68455;SDS011;55437;55.046;38.838;2024-03-23T07:13:52;25.98;;;11.60;;
68455;SDS011;55437;55.046;38.838;2024-03-23T07:16:22;27.63;;;13.60;;
68455;SDS011;55437;55.046;38.838;2024-03-23T07:18:50;29.13;;;13.45;;
68455;SDS011;55437;55.046;38.838;2024-03-23T07:21:19;28.75;;;14.30;;
68455;SDS011;55437;55.046;38.838;2024-03-23T07:23:45;29.83;;;13.70;;
68455;SDS011;55437;55.046;38.838;2024-03-23T07:26:11;25.27;;;12.57;;
68455;SDS011;55437;55.046;38.838;2024-03-23T07:28:37;28.00;;;13.23;;
68455;SDS011;55437;55.046;38.838;2024-03-23T07:33:32;27.25;;;14.10;;
68455;SDS011;55437;55.046;38.838;2024-03-23T07:35:59;26.30;;;13.13;;
68455;SDS011;55437;55.046;38.838;2024-03-23T07:38:29;26.75;;;14.65;;
68455;SDS011;55437;55.046;38.838;2024-03-23T07:41:20;32.30;;;14.90;;
68455;SDS011;55437;55.046;38.838;2024-03-23T07:43:47;25.48;;;13.20;;
68455;SDS011;55437;55.046;38.838;2024-03-23T07:46:14;24.30;;;10.82;;
68455;SDS011;55437;55.046;38.838;2024-03-23T07:48:41;22.52;;;11.27;;
68455;SDS011;55437;55.046;38.838;2024-03-23T07:51:10;25.88;;;12.70;;
68455;SDS011;55437;55.046;38.838;2024-03-23T07:53:38;31.23;;;14.85;;
68455;SDS011;55437;55.046;38.838;2024-03-23T07:56:05;23.85;;;11.93;;
68455;SDS011;55437;55.046;38.838;2024-03-23T07:58:33;23.95;;;12.07;;
68455;SDS011;55437;55.046;38.838;2024-03-23T08:01:07;28.42;;;14.63;;
68455;SDS011;55437;55.046;38.838;2024-03-23T08:03:34;25.83;;;12.55;;
68455;SDS011;55437;55.046;38.838;2024-03-23T08:06:14;26.25;;;13.27;;
68455;SDS011;55437;55.046;38.838;2024-03-23T08:08:43;27.25;;;15.77;;
68455;SDS011;55437;55.046;38.838;2024-03-23T08:11:13;27.45;;;12.68;;
68455;SDS011;55437;55.046;38.838;2024-03-23T08:13:41;24.00;;;12.50;;
68455;SDS011;55437;55.046;38.838;2024-03-23T08:16:11;28.55;;;13.27;;
68455;SDS011;55437;55.046;38.838;2024-03-23T08:18:40;30.48;;;14.80;;
68455;SDS011;55437;55.046;38.838;2024-03-23T08:21:07;25.10;;;12.50;;
68455;SDS011;55437;55.046;38.838;2024-03-23T08:23:34;28.35;;;12.88;;
68455;SDS011;55437;55.046;38.838;2024-03-23T08:26:14;23.40;;;12.52;;
68455;SDS011;55437;55.046;38.838;2024-03-23T08:28:42;28.45;;;13.88;;
68455;SDS011;55437;55.046;38.838;2024-03-23T08:31:12;26.75;;;13.65;;
68455;SDS011;55437;55.046;38.838;2024-03-23T08:33:41;24.70;;;12.20;;
68455;SDS011;55437;55.046;38.838;2024-03-23T08:36:09;31.27;;;17.27;;
68455;SDS011;55437;55.046;38.838;2024-03-23T08:38:40;28.58;;;12.70;;
68455;SDS011;55437;55.046;38.838;2024-03-23T08:41:08;25.77;;;13.82;;
68455;SDS011;55437;55.046;38.838;2024-03-23T08:43:40;26.52;;;13.85;;
68455;SDS011;55437;55.046;38.838;2024-03-23T08:46:09;25.83;;;11.45;;
68455;SDS011;55437;55.046;38.838;2024-03-23T08:48:40;26.13;;;12.40;;
68455;SDS011;55437;55.046;38.838;2024-03-23T08:51:10;29.10;;;15.80;;
68455;SDS011;55437;55.046;38.838;2024-03-23T08:53:38;31.75;;;16.05;;
68455;SDS011;55437;55.046;38.838;2024-03-23T08:56:05;26.73;;;12.63;;
68455;SDS011;55437;55.046;38.838;2024-03-23T08:58:32;32.25;;;15.85;;
68455;SDS011;55437;55.046;38.838;2024-03-23T09:01:09;29.05;;;13.65;;
68455;SDS011;55437;55.046;38.838;2024-03-23T09:03:39;25.83;;;13.00;;
68455;SDS011;55437;55.046;38.838;2024-03-23T09:06:09;30.35;;;13.73;;
68455;SDS011;55437;55.046;38.838;2024-03-23T09:08:37;29.05;;;14.55;;
68455;SDS011;55437;55.046;38.838;2024-03-23T09:11:08;29.92;;;13.73;;
68455;SDS011;55437;55.046;38.838;2024-03-23T09:13:36;28.05;;;14.10;;
68455;SDS011;55437;55.046;38.838;2024-03-23T09:16:04;27.58;;;13.20;;
68455;SDS011;55437;55.046;38.838;2024-03-23T09:18:56;27.20;;;12.18;;
68455;SDS011;55437;55.046;38.838;2024-03-23T09:21:23;25.70;;;12.85;;
68455;SDS011;55437;55.046;38.838;2024-03-23T09:23:54;26.67;;;12.75;;
68455;SDS011;55437;55.046;38.838;2024-03-23T09:26:20;21.95;;;11.85;;
68455;SDS011;55437;55.046;38.838;2024-03-23T09:28:48;30.05;;;13.55;;
68455;SDS011;55437;55.046;38.838;2024-03-23T09:31:14;25.73;;;13.07;;
68455;SDS011;55437;55.046;38.838;2024-03-23T09:33:41;27.65;;;16.30;;
68455;SDS011;55437;55.046;38.838;2024-03-23T09:36:11;26.00;;;13.43;;
68455;SDS011;55437;55.046;38.838;2024-03-23T09:38:37;22.15;;;11.63;;
68455;SDS011;55437;55.046;38.838;2024-03-23T09:41:06;23.88;;;12.15;;
68455;SDS011;55437;55.046;38.838;2024-03-23T09:43:34;23.85;;;11.98;;
68455;SDS011;55437;55.046;38.838;2024-03-23T09:46:03;22.02;;;13.00;;
68455;SDS011;55437;55.046;38.838;2024-03-23T09:48:32;27.00;;;13.75;;
68455;SDS011;55437;55.046;38.838;2024-03-23T09:50:58;31.05;;;14.55;;
68455;SDS011;55437;55.046;38.838;2024-03-23T09:53:27;26.45;;;13.95;;
68455;SDS011;55437;55.046;38.838;2024-03-23T09:55:53;26.05;;;12.25;;
68455;SDS011;55437;55.046;38.838;2024-03-23T09:58:18;25.83;;;12.52;;
68455;SDS011;55437;55.046;38.838;2024-03-23T10:00:45;24.45;;;14.10;;
68455;SDS011;55437;55.046;38.838;2024-03-23T10:03:15;25.98;;;14.93;;
68455;SDS011;55437;55.046;38.838;2024-03-23T10:05:41;27.27;;;13.75;;
68455;SDS011;55437;55.046;38.838;2024-03-23T10:10:40;24.92;;;14.13;;
68455;SDS011;55437;55.046;38.838;2024-03-23T10:13:07;26.27;;;13.73;;
68455;SDS011;55437;55.046;38.838;2024-03-23T10:15:35;25.38;;;13.27;;
68455;SDS011;55437;55.046;38.838;2024-03-23T10:18:24;28.70;;;14.57;;
68455;SDS011;55437;55.046;38.838;2024-03-23T10:23:35;25.98;;;13.68;;
68455;SDS011;55437;55.046;38.838;2024-03-23T10:26:21;27.52;;;14.02;;
68455;SDS011;55437;55.046;38.838;2024-03-23T10:31:34;27.33;;;13.30;;
68455;SDS011;55437;55.046;38.838;2024-03-23T10:34:05;27.98;;;13.82;;
68455;SDS011;55437;55.046;38.838;2024-03-23T10:36:57;27.10;;;14.05;;
68455;SDS011;55437;55.046;38.838;2024-03-23T10:42:16;31.75;;;14.43;;
68455;SDS011;55437;55.046;38.838;2024-03-23T10:44:51;27.95;;;14.93;;
68455;SDS011;55437;55.046;38.838;2024-03-23T10:47:19;31.00;;;15.32;;
68455;SDS011;55437;55.046;38.838;2024-03-23T10:49:45;30.83;;;15.02;;
68455;SDS011;55437;55.046;38.838;2024-03-23T10:55:06;32.85;;;15.75;;
68455;SDS011;55437;55.046;38.838;2024-03-23T10:57:34;29.55;;;16.08;;
68455;SDS011;55437;55.046;38.838;2024-03-23T11:00:06;34.25;;;17.13;;
68455;SDS011;55437;55.046;38.838;2024-03-23T11:02:38;33.95;;;17.52;;
68455;SDS011;55437;55.046;38.838;2024-03-23T11:05:27;33.30;;;18.17;;
68455;SDS011;55437;55.046;38.838;2024-03-23T11:07:50;32.05;;;17.85;;
68455;SDS011;55437;55.046;38.838;2024-03-23T11:10:25;32.25;;;16.85;;
68455;SDS011;55437;55.046;38.838;2024-03-23T11:12:53;30.77;;;16.85;;
68455;SDS011;55437;55.046;38.838;2024-03-23T11:15:21;32.88;;;17.17;;
68455;SDS011;55437;55.046;38.838;2024-03-23T11:18:03;30.05;;;17.02;;
68455;SDS011;55437;55.046;38.838;2024-03-23T11:20:57;33.63;;;16.27;;
68455;SDS011;55437;55.046;38.838;2024-03-23T11:23:27;29.73;;;16.02;;
68455;SDS011;55437;55.046;38.838;2024-03-23T11:28:19;30.88;;;16.08;;
68455;SDS011;55437;55.046;38.838;2024-03-23T11:30:46;29.08;;;14.30;;
68455;SDS011;55437;55.046;38.838;2024-03-23T11:33:13;31.92;;;15.55;;
68455;SDS011;55437;55.046;38.838;2024-03-23T11:35:39;31.23;;;16.60;;
68455;SDS011;55437;55.046;38.838;2024-03-23T11:38:07;28.48;;;16.63;;
68455;SDS011;55437;55.046;38.838;2024-03-23T11:41:02;34.08;;;16.45;;
68455;SDS011;55437;55.046;38.838;2024-03-23T11:43:28;37.53;;;17.13;;
68455;SDS011;55437;55.046;38.838;2024-03-23T11:45:54;29.48;;;16.83;;
68455;SDS011;55437;55.046;38.838;2024-03-23T11:48:23;33.63;;;15.90;;
68455;SDS011;55437;55.046;38.838;2024-03-23T11:50:50;32.53;;;16.02;;
68455;SDS011;55437;55.046;38.838;2024-03-23T11:53:20;28.58;;;16.50;;
68455;SDS011;55437;55.046;38.838;2024-03-23T11:58:21;33.35;;;16.83;;
68455;SDS011;55437;55.046;38.838;2024-03-23T12:03:19;32.30;;;17.88;;
68455;SDS011;55437;55.046;38.838;2024-03-23T12:05:52;33.17;;;15.70;;
68455;SDS011;55437;55.046;38.838;2024-03-23T12:08:22;31.20;;;15.98;;
68455;SDS011;55437;55.046;38.838;2024-03-23T12:13:21;38.10;;;19.50;;
68455;SDS011;55437;55.046;38.838;2024-03-23T12:15:49;31.98;;;17.77;;
68455;SDS011;55437;55.046;38.838;2024-03-23T12:18:16;30.90;;;16.90;;
68455;SDS011;55437;55.046;38.838;2024-03-23T12:20:43;32.78;;;16.65;;
68455;SDS011;55437;55.046;38.838;2024-03-23T12:23:38;35.00;;;17.42;;
68455;SDS011;55437;55.046;38.838;2024-03-23T12:26:05;33.42;;;18.10;;
68455;SDS011;55437;55.046;38.838;2024-03-23T12:28:32;34.85;;;18.70;;
68455;SDS011;55437;55.046;38.838;2024-03-23T12:30:58;38.90;;;19.27;;
68455;SDS011;55437;55.046;38.838;2024-03-23T12:33:24;36.10;;;18.15;;
68455;SDS011;55437;55.046;38.838;2024-03-23T12:35:51;34.10;;;17.85;;
68455;SDS011;55437;55.046;38.838;2024-03-23T12:38:18;32.78;;;17.20;;
68455;SDS011;55437;55.046;38.838;2024-03-23T12:43:39;33.17;;;17.40;;
68455;SDS011;55437;55.046;38.838;2024-03-23T12:46:05;31.42;;;16.20;;
68455;SDS011;55437;55.046;38.838;2024-03-23T12:48:58;31.80;;;16.50;;
68455;SDS011;55437;55.046;38.838;2024-03-23T12:51:25;31.23;;;17.08;;
68455;SDS011;55437;55.046;38.838;2024-03-23T12:53:51;34.50;;;16.73;;
68455;SDS011;55437;55.046;38.838;2024-03-23T12:56:36;31.48;;;18.52;;
68455;SDS011;55437;55.046;38.838;2024-03-23T12:59:03;32.50;;;17.23;;
68455;SDS011;55437;55.046;38.838;2024-03-23T13:01:29;34.33;;;17.50;;
68455;SDS011;55437;55.046;38.838;2024-03-23T13:03:56;33.85;;;17.08;;
68455;SDS011;55437;55.046;38.838;2024-03-23T13:06:24;30.77;;;15.93;;
68455;SDS011;55437;55.046;38.838;2024-03-23T13:08:52;33.03;;;16.58;;
68455;SDS011;55437;55.046;38.838;2024-03-23T13:11:22;33.25;;;16.65;;
68455;SDS011;55437;55.046;38.838;2024-03-23T13:13:49;31.80;;;16.20;;
68455;SDS011;55437;55.046;38.838;2024-03-23T13:16:15;36.00;;;17.95;;
68455;SDS011;55437;55.046;38.838;2024-03-23T13:18:41;32.92;;;17.90;;
68455;SDS011;55437;55.046;38.838;2024-03-23T13:21:08;33.15;;;17.35;;
68455;SDS011;55437;55.046;38.838;2024-03-23T13:23:35;33.63;;;19.23;;
68455;SDS011;55437;55.046;38.838;2024-03-23T13:26:03;35.03;;;16.85;;
68455;SDS011;55437;55.046;38.838;2024-03-23T13:28:34;35.67;;;18.08;;
68455;SDS011;55437;55.046;38.838;2024-03-23T13:31:02;37.38;;;18.60;;
68455;SDS011;55437;55.046;38.838;2024-03-23T13:33:30;35.00;;;17.92;;
68455;SDS011;55437;55.046;38.838;2024-03-23T13:35:58;37.15;;;19.60;;
68455;SDS011;55437;55.046;38.838;2024-03-23T13:41:16;32.63;;;17.00;;
68455;SDS011;55437;55.046;38.838;2024-03-23T13:43:43;31.88;;;16.25;;
68455;SDS011;55437;55.046;38.838;2024-03-23T13:46:09;32.47;;;17.00;;
68455;SDS011;55437;55.046;38.838;2024-03-23T13:48:35;34.92;;;17.17;;
68455;SDS011;55437;55.046;38.838;2024-03-23T13:51:04;53.80;;;29.13;;
68455;SDS011;55437;55.046;38.838;2024-03-23T13:56:22;35.78;;;16.70;;
68455;SDS011;55437;55.046;38.838;2024-03-23T13:58:49;36.05;;;17.20;;
68455;SDS011;55437;55.046;38.838;2024-03-23T14:01:15;33.17;;;16.92;;
68455;SDS011;55437;55.046;38.838;2024-03-23T14:03:43;34.42;;;16.92;;
68455;SDS011;55437;55.046;38.838;2024-03-23T14:06:10;32.40;;;15.73;;
68455;SDS011;55437;55.046;38.838;2024-03-23T14:08:37;35.38;;;16.38;;
68455;SDS011;55437;55.046;38.838;2024-03-23T14:11:07;35.33;;;16.70;;
68455;SDS011;55437;55.046;38.838;2024-03-23T14:13:37;32.60;;;16.15;;
68455;SDS011;55437;55.046;38.838;2024-03-23T14:16:04;34.28;;;16.77;;
68455;SDS011;55437;55.046;38.838;2024-03-23T14:18:39;40.20;;;17.67;;
68455;SDS011;55437;55.046;38.838;2024-03-23T14:21:05;39.10;;;18.35;;
68455;SDS011;55437;55.046;38.838;2024-03-23T14:23:32;35.60;;;18.33;;
68455;SDS011;55437;55.046;38.838;2024-03-23T14:26:01;37.72;;;17.75;;
68455;SDS011;55437;55.046;38.838;2024-03-23T14:28:27;40.17;;;18.65;;
68455;SDS011;55437;55.046;38.838;2024-03-23T14:30:55;37.88;;;19.42;;
68455;SDS011;55437;55.046;38.838;2024-03-23T14:33:21;35.60;;;17.23;;
68455;SDS011;55437;55.046;38.838;2024-03-23T14:35:54;38.80;;;18.73;;
68455;SDS011;55437;55.046;38.838;2024-03-23T14:38:25;40.05;;;21.30;;
68455;SDS011;55437;55.046;38.838;2024-03-23T14:40:51;38.03;;;18.08;;
68455;SDS011;55437;55.046;38.838;2024-03-23T14:43:18;41.58;;;18.50;;
68455;SDS011;55437;55.046;38.838;2024-03-23T14:45:48;40.72;;;18.30;;
68455;SDS011;55437;55.046;38.838;2024-03-23T14:48:41;37.72;;;17.40;;
68455;SDS011;55437;55.046;38.838;2024-03-23T14:51:08;40.80;;;18.65;;
68455;SDS011;55437;55.046;38.838;2024-03-23T14:53:35;38.28;;;16.75;;
68455;SDS011;55437;55.046;38.838;2024-03-23T14:56:03;38.78;;;18.58;;
68455;SDS011;55437;55.046;38.838;2024-03-23T14:58:29;39.78;;;17.65;;
68455;SDS011;55437;55.046;38.838;2024-03-23T15:00:59;37.63;;;17.92;;
68455;SDS011;55437;55.046;38.838;2024-03-23T15:03:27;35.72;;;17.45;;
68455;SDS011;55437;55.046;38.838;2024-03-23T15:05:56;37.15;;;16.83;;
68455;SDS011;55437;55.046;38.838;2024-03-23T15:08:24;40.28;;;17.70;;
68455;SDS011;55437;55.046;38.838;2024-03-23T15:10:50;34.00;;;16.60;;
68455;SDS011;55437;55.046;38.838;2024-03-23T15:13:16;37.83;;;17.58;;
68455;SDS011;55437;55.046;38.838;2024-03-23T15:15:44;38.97;;;18.00;;
68455;SDS011;55437;55.046;38.838;2024-03-23T15:18:12;35.75;;;16.88;;
68455;SDS011;55437;55.046;38.838;2024-03-23T15:20:54;40.97;;;18.00;;
68455;SDS011;55437;55.046;38.838;2024-03-23T15:23:23;38.63;;;18.10;;
68455;SDS011;55437;55.046;38.838;2024-03-23T15:25:59;47.67;;;22.45;;
68455;SDS011;55437;55.046;38.838;2024-03-23T15:28:29;44.88;;;19.55;;
68455;SDS011;55437;55.046;38.838;2024-03-23T15:31:14;46.85;;;20.00;;
68455;SDS011;55437;55.046;38.838;2024-03-23T15:33:40;45.53;;;20.90;;
68455;SDS011;55437;55.046;38.838;2024-03-23T15:36:06;42.42;;;19.50;;
68455;SDS011;55437;55.046;38.838;2024-03-23T15:41:44;38.75;;;19.52;;
68455;SDS011;55437;55.046;38.838;2024-03-23T15:47:03;36.10;;;18.08;;
68455;SDS011;55437;55.046;38.838;2024-03-23T15:49:31;42.10;;;16.85;;
68455;SDS011;55437;55.046;38.838;2024-03-23T15:51:57;37.30;;;17.50;;
68455;SDS011;55437;55.046;38.838;2024-03-23T15:54:23;34.88;;;19.02;;
68455;SDS011;55437;55.046;38.838;2024-03-23T15:56:52;37.33;;;16.10;;
68455;SDS011;55437;55.046;38.838;2024-03-23T15:59:19;33.50;;;16.08;;
68455;SDS011;55437;55.046;38.838;2024-03-23T16:01:48;37.85;;;17.58;;